Time;durP1;ratioP1;P1;durP2;ratioP2;P2;SDS_P1;SDS_P2;PMS_P1;PMS_P2;Temp;Humidity;BMP_temperature;BMP_pressure;BME280_temperature;BME280_humidity;BME280_pressure;Samples;Min_cycle;Max_cycle;Signal;HPM_P1;HPM_P2
2021/07/22 00:01:36;;;;;;;;;;;;;;;19.26;60.04;98741.11;1762216;81;20257;-87
2021/07/22 00:04:02;;;;;;;;;;;;;;;19.25;60.15;98747.42;1764016;79;21133;-88
2021/07/22 00:06:28;;;;;;;;;;;;;;;19.19;60.23;98746.71;1762985;81;24481;-87
2021/07/22 00:08:54;;;;;;;;;;;;;;;19.17;60.32;98737.57;1763333;79;20775;-87
2021/07/22 00:11:20;;;;;;;;;;;;;;;19.19;60.38;98739.59;1764811;81;24964;-87
2021/07/22 00:13:46;;;;;;;;;;;;;;;19.20;60.40;98743.08;1761159;81;21924;-87
2021/07/22 00:16:16;;;;;;;;;;;;;;;19.19;60.42;98743.56;1759680;80;21009;-88
2021/07/22 00:18:42;;;;;;;;;;;;;;;19.21;60.48;98742.06;1763004;81;24660;-87
2021/07/22 00:21:08;;;;;;;;;;;;;;;19.21;60.53;98740.25;1763069;80;20826;-87
2021/07/22 00:23:34;;;;;;;;;;;;;;;19.23;60.57;98745.41;1761503;81;25022;-87
2021/07/22 00:26:07;;;;;;;;;;;;;;;19.14;60.68;98744.52;1761668;81;22152;-88
2021/07/22 00:28:35;;;;;;;;;;;;;;;18.96;60.75;98733.09;1763692;81;26135;-88
2021/07/22 00:31:04;;;;;;;;;;;;;;;18.87;60.85;98738.48;1763161;81;24664;-87
2021/07/22 00:33:33;;;;;;;;;;;;;;;18.82;60.99;98740.23;1759184;81;20483;-88
2021/07/22 00:36:01;;;;;;;;;;;;;;;18.70;61.07;98741.47;1763251;81;25025;-88
2021/07/22 00:38:27;;;;;;;;;;;;;;;18.74;61.20;98740.17;1762506;81;21959;-88
2021/07/22 00:40:54;;;;;;;;;;;;;;;18.75;61.35;98737.38;1762233;81;26150;-87
2021/07/22 00:43:20;;;;;;;;;;;;;;;18.80;61.53;98737.75;1763774;81;24573;-88
2021/07/22 00:45:46;;;;;;;;;;;;;;;18.86;61.70;98736.80;1759542;81;20311;-88
2021/07/22 00:48:12;;;;;;;;;;;;;;;18.88;61.79;98734.33;1761895;81;20237;-87
2021/07/22 00:50:38;;;;;;;;;;;;;;;18.92;61.92;98733.06;1758368;81;21938;-88
2021/07/22 00:53:05;;;;;;;;;;;;;;;18.86;61.98;98736.31;1735019;81;21353;-87
2021/07/22 00:55:31;;;;;;;;;;;;;;;18.87;62.08;98741.13;1776417;80;20290;-87
2021/07/22 00:57:57;;;;;;;;;;;;;;;18.88;62.20;98733.48;1776651;80;20322;-88
2021/07/22 01:00:23;;;;;;;;;;;;;;;18.85;62.29;98735.97;1776650;80;20695;-87
2021/07/22 01:02:49;;;;;;;;;;;;;;;18.79;62.37;98740.55;1775788;80;21953;-86
2021/07/22 01:05:17;;;;;;;;;;;;;;;18.78;62.46;98742.85;1775309;80;21616;-87
2021/07/22 01:07:43;;;;;;;;;;;;;;;18.78;62.54;98741.53;1771569;79;24468;-87
2021/07/22 01:10:09;;;;;;;;;;;;;;;18.75;62.57;98741.36;1774110;80;20289;-88
2021/07/22 01:12:35;;;;;;;;;;;;;;;18.75;62.58;98737.87;1773069;80;25054;-88
2021/07/22 01:15:03;;;;;;;;;;;;;;;18.73;62.62;98739.34;1779345;80;22042;-88
2021/07/22 01:17:43;;;;;;;;;;;;;;;18.72;62.63;98734.17;1743561;80;21123;-88
2021/07/22 01:20:13;;;;;;;;;;;;;;;18.74;62.67;98737.03;1770778;80;25208;-88
2021/07/22 01:22:46;;;;;;;;;;;;;;;18.66;62.72;98738.75;1779277;80;20218;-87
2021/07/22 01:25:14;;;;;;;;;;;;;;;18.64;62.75;98740.73;1777550;80;25733;-88
2021/07/22 01:27:41;;;;;;;;;;;;;;;18.57;62.78;98746.28;1779004;79;22139;-87
2021/07/22 01:30:07;;;;;;;;;;;;;;;18.53;62.81;98739.11;1772645;80;26156;-88
2021/07/22 01:32:35;;;;;;;;;;;;;;;18.50;62.89;98744.69;1731843;80;20214;-88
2021/07/22 01:35:01;;;;;;;;;;;;;;;18.46;62.94;98744.66;1775926;80;20205;-88
2021/07/22 01:37:27;;;;;;;;;;;;;;;18.46;62.99;98746.47;1775376;80;25192;-87
2021/07/22 01:39:54;;;;;;;;;;;;;;;18.45;63.07;98748.28;1777524;80;22100;-88
2021/07/22 01:42:20;;;;;;;;;;;;;;;18.40;63.14;98751.87;1776755;80;26030;-87
2021/07/22 01:44:46;;;;;;;;;;;;;;;18.38;63.23;98752.53;1778797;80;24478;-87
2021/07/22 01:47:12;;;;;;;;;;;;;;;18.41;63.30;98741.62;1776599;80;20163;-87
2021/07/22 01:49:41;;;;;;;;;;;;;;;18.47;63.38;98738.86;1776591;80;25002;-87
2021/07/22 01:52:07;;;;;;;;;;;;;;;18.47;63.43;98745.00;1773451;79;21853;-88
2021/07/22 01:54:33;;;;;;;;;;;;;;;18.43;63.48;98742.80;1776614;79;25960;-88
2021/07/22 01:57:00;;;;;;;;;;;;;;;18.39;63.52;98744.41;1768226;80;20256;-88
2021/07/22 01:59:35;;;;;;;;;;;;;;;18.38;63.55;98747.23;1764272;80;20435;-88
2021/07/22 02:01:55;;;;;;;;;;;;;;;18.35;63.57;98746.18;1728617;82;25092;-88
2021/07/22 02:04:21;;;;;;;;;;;;;;;18.31;63.62;98750.95;1767937;79;20374;-88
2021/07/22 02:06:47;;;;;;;;;;;;;;;18.30;63.67;98759.05;1769063;81;26011;-88
2021/07/22 02:09:13;;;;;;;;;;;;;;;18.26;63.71;98760.33;1771422;79;20362;-88
2021/07/22 02:11:42;;;;;;;;;;;;;;;18.21;63.76;98760.77;1769215;79;20214;-88
2021/07/22 02:14:08;;;;;;;;;;;;;;;18.17;63.82;98762.52;1770788;80;24953;-88
2021/07/22 02:16:34;;;;;;;;;;;;;;;18.13;63.87;98757.17;1763819;79;20221;-88
2021/07/22 02:19:00;;;;;;;;;;;;;;;18.14;63.92;98762.34;1769639;80;25959;-88
2021/07/22 02:21:28;;;;;;;;;;;;;;;18.12;63.98;98759.47;1768446;80;24457;-88
2021/07/22 02:23:54;;;;;;;;;;;;;;;18.13;64.04;98757.17;1771807;80;20141;-87
2021/07/22 02:26:22;;;;;;;;;;;;;;;18.12;64.08;98755.50;1770823;80;25074;-88
2021/07/22 02:28:50;;;;;;;;;;;;;;;18.11;64.14;98757.83;1769077;80;22077;-88
2021/07/22 02:31:16;;;;;;;;;;;;;;;18.08;64.20;98753.64;1769841;80;26241;-87
2021/07/22 02:33:42;;;;;;;;;;;;;;;18.07;64.23;98751.97;1768695;80;20863;-87
2021/07/22 02:36:08;;;;;;;;;;;;;;;18.04;64.30;98756.25;1767702;80;20459;-87
2021/07/22 02:38:34;;;;;;;;;;;;;;;18.04;64.34;98756.73;1763355;80;20886;-87
2021/07/22 02:41:04;;;;;;;;;;;;;;;18.07;64.42;98761.24;1768337;79;21936;-87
2021/07/22 02:43:30;;;;;;;;;;;;;;;18.03;64.47;98759.88;1767939;80;25829;-87
2021/07/22 02:45:57;;;;;;;;;;;;;;;17.99;64.54;98759.83;1767742;80;24669;-87
2021/07/22 02:48:23;;;;;;;;;;;;;;;17.98;64.60;98763.45;1772335;80;20523;-87
2021/07/22 02:50:49;;;;;;;;;;;;;;;17.94;64.63;98766.89;1771929;80;25008;-87
2021/07/22 02:53:15;;;;;;;;;;;;;;;17.92;64.70;98767.52;1772417;80;20217;-87
2021/07/22 02:55:45;;;;;;;;;;;;;;;17.97;64.77;98767.07;1765635;80;26118;-87
2021/07/22 02:58:14;;;;;;;;;;;;;;;18.00;64.80;98767.28;1759856;81;24059;-87
2021/07/22 03:00:40;;;;;;;;;;;;;;;18.03;64.86;98765.66;1762834;81;20438;-88
2021/07/22 03:03:09;;;;;;;;;;;;;;;18.01;64.90;98769.77;1763353;81;24995;-88
2021/07/22 03:05:39;;;;;;;;;;;;;;;18.03;64.94;98769.14;1764173;81;22057;-88
2021/07/22 03:08:03;;;;;;;;;;;;;;;18.00;64.98;98761.98;1763225;81;26837;-87
2021/07/22 03:10:33;;;;;;;;;;;;;;;18.02;65.02;98758.69;1762037;81;24587;-88
2021/07/22 03:12:59;;;;;;;;;;;;;;;18.03;65.07;98761.20;1762768;81;20231;-87
2021/07/22 03:15:28;;;;;;;;;;;;;;;18.02;65.10;98761.34;1760792;81;24962;-87
2021/07/22 03:17:54;;;;;;;;;;;;;;;17.98;65.10;98757.66;1763668;81;22019;-87
2021/07/22 03:20:20;;;;;;;;;;;;;;;17.98;65.17;98757.66;1763571;81;25925;-87
2021/07/22 03:22:47;;;;;;;;;;;;;;;17.94;65.22;98759.44;1761375;81;24546;-87
2021/07/22 03:25:13;;;;;;;;;;;;;;;17.91;65.28;98760.55;1763095;81;20282;-87
2021/07/22 03:27:45;;;;;;;;;;;;;;;17.88;65.34;98755.55;1763426;81;25571;-87
2021/07/22 03:30:17;;;;;;;;;;;;;;;17.85;65.46;98757.14;1763015;81;22205;-88
2021/07/22 03:32:44;;;;;;;;;;;;;;;17.87;65.59;98753.04;1762763;81;26761;-88
2021/07/22 03:35:10;;;;;;;;;;;;;;;17.91;65.67;98755.25;1763575;79;24535;-87
2021/07/22 03:37:36;;;;;;;;;;;;;;;17.96;65.77;98761.42;1761338;81;20310;-87
2021/07/22 03:40:03;;;;;;;;;;;;;;;17.96;65.86;98760.10;1761124;81;24959;-87
2021/07/22 03:42:30;;;;;;;;;;;;;;;17.95;65.95;98763.72;1762111;80;22006;-87
2021/07/22 03:44:56;;;;;;;;;;;;;;;17.91;66.06;98765.00;1763930;79;26094;-87
2021/07/22 03:47:22;;;;;;;;;;;;;;;17.84;66.15;98767.88;1762725;79;20895;-87
2021/07/22 03:49:47;;;;;;;;;;;;;;;17.77;66.24;98768.13;1762367;81;20504;-87
2021/07/22 03:52:13;;;;;;;;;;;;;;;17.74;66.38;98767.91;1762139;81;20426;-87
2021/07/22 03:54:39;;;;;;;;;;;;;;;17.77;66.50;98765.00;1764506;80;21803;-87
2021/07/22 03:57:07;;;;;;;;;;;;;;;17.75;66.62;98769.59;1776169;80;26098;-87
2021/07/22 03:59:33;;;;;;;;;;;;;;;17.73;66.71;98767.56;1774547;80;24515;-87
2021/07/22 04:02:02;;;;;;;;;;;;;;;17.72;66.77;98775.19;1776182;80;20286;-87
2021/07/22 04:04:28;;;;;;;;;;;;;;;17.72;66.84;98774.34;1775391;80;24954;-88
2021/07/22 04:06:54;;;;;;;;;;;;;;;17.72;66.90;98769.05;1746681;80;22124;-87
2021/07/22 04:09:20;;;;;;;;;;;;;;;17.73;66.97;98774.70;1780147;79;21062;-86
2021/07/22 04:11:46;;;;;;;;;;;;;;;17.76;67.01;98777.88;1780058;79;24461;-87
2021/07/22 04:14:15;;;;;;;;;;;;;;;17.76;67.05;98773.07;1774696;80;20219;-87
2021/07/22 04:16:41;;;;;;;;;;;;;;;17.75;67.11;98774.05;1776937;80;20216;-87
2021/07/22 04:19:07;;;;;;;;;;;;;;;17.77;67.15;98774.27;1771781;80;22015;-86
2021/07/22 04:21:33;;;;;;;;;;;;;;;17.78;67.20;98768.48;1771581;79;26059;-87
2021/07/22 04:23:59;;;;;;;;;;;;;;;17.75;67.22;98773.56;1774075;80;24620;-87
2021/07/22 04:26:26;;;;;;;;;;;;;;;17.77;67.26;98776.07;1776201;79;20297;-88
2021/07/22 04:28:54;;;;;;;;;;;;;;;17.76;67.29;98772.59;1776487;80;25111;-88
2021/07/22 04:31:20;;;;;;;;;;;;;;;17.75;67.31;98774.87;1779201;80;21985;-87
2021/07/22 04:33:51;;;;;;;;;;;;;;;17.76;67.38;98777.05;1744725;80;41441;-87
2021/07/22 04:36:15;;;;;;;;;;;;;;;17.77;67.43;98778.72;1770577;80;24475;-87
2021/07/22 04:38:41;;;;;;;;;;;;;;;17.78;67.50;98775.09;1781110;79;20303;-87
2021/07/22 04:41:07;;;;;;;;;;;;;;;17.75;67.55;98777.53;1772631;80;25027;-87
2021/07/22 04:43:33;;;;;;;;;;;;;;;17.73;67.58;98779.47;1776395;80;20850;-87
2021/07/22 04:46:03;;;;;;;;;;;;;;;17.76;67.66;98788.95;1776790;80;26058;-87
2021/07/22 04:48:29;;;;;;;;;;;;;;;17.76;67.70;98777.88;1772700;80;24561;-87
2021/07/22 04:50:55;;;;;;;;;;;;;;;17.79;67.75;98782.03;1777544;79;20290;-87
2021/07/22 04:53:21;;;;;;;;;;;;;;;17.81;67.80;98786.23;1775007;80;24989;-87
2021/07/22 04:55:47;;;;;;;;;;;;;;;17.84;67.87;98781.95;1778866;80;21940;-88
2021/07/22 04:58:13;;;;;;;;;;;;;;;17.85;67.92;98780.98;1779009;79;21015;-88
2021/07/22 05:00:40;;;;;;;;;;;;;;;17.90;67.97;98782.70;1778782;80;24387;-87
2021/07/22 05:03:12;;;;;;;;;;;;;;;17.94;67.99;98782.78;1777668;79;20272;-88
2021/07/22 05:05:38;;;;;;;;;;;;;;;17.95;68.01;98777.80;1772086;80;24949;-88
2021/07/22 05:08:05;;;;;;;;;;;;;;;17.96;68.00;98782.61;1773380;80;22118;-87
2021/07/22 05:10:31;;;;;;;;;;;;;;;18.00;68.03;98780.53;1774162;80;26002;-87
2021/07/22 05:12:58;;;;;;;;;;;;;;;18.01;68.03;98782.17;1772666;80;24605;-87
2021/07/22 05:15:24;;;;;;;;;;;;;;;18.05;68.07;98780.44;1772763;80;20339;-88
2021/07/22 05:17:50;;;;;;;;;;;;;;;18.12;68.09;98788.61;1768199;80;20246;-88
2021/07/22 05:20:16;;;;;;;;;;;;;;;18.17;68.13;98783.22;1776462;79;21929;-87
2021/07/22 05:22:42;;;;;;;;;;;;;;;18.22;68.15;98781.48;1770855;80;21575;-87
2021/07/22 05:25:13;;;;;;;;;;;;;;;18.28;68.17;98785.67;1776371;78;26123;-87
2021/07/22 05:27:41;;;;;;;;;;;;;;;18.33;68.20;98787.88;1778398;80;20247;-87
2021/07/22 05:30:07;;;;;;;;;;;;;;;18.36;68.18;98787.61;1778826;80;24994;-87
2021/07/22 05:32:33;;;;;;;;;;;;;;;18.37;68.16;98790.12;1743565;80;22092;-87
2021/07/22 05:35:00;;;;;;;;;;;;;;;18.40;68.14;98790.30;1775017;80;25974;-87
2021/07/22 05:37:26;;;;;;;;;;;;;;;18.48;68.17;98791.73;1770081;80;24450;-87
2021/07/22 05:39:52;;;;;;;;;;;;;;;18.53;68.17;98787.30;1771843;79;20243;-86
2021/07/22 05:42:18;;;;;;;;;;;;;;;18.57;68.15;98790.02;1777273;80;20266;-87
2021/07/22 05:44:44;;;;;;;;;;;;;;;18.67;68.14;98790.30;1771903;80;23271;-87
2021/07/22 05:47:10;;;;;;;;;;;;;;;18.74;68.11;98793.20;1775387;80;21156;-87
2021/07/22 05:49:36;;;;;;;;;;;;;;;18.84;68.07;98789.15;1774195;80;24467;-87
2021/07/22 05:52:02;;;;;;;;;;;;;;;18.86;68.02;98782.73;1777572;80;20295;-87
2021/07/22 05:54:31;;;;;;;;;;;;;;;18.94;67.98;98792.56;1774378;80;24961;-87
2021/07/22 05:56:57;;;;;;;;;;;;;;;19.01;67.87;98789.66;1768258;80;22081;-87
2021/07/22 05:59:26;;;;;;;;;;;;;;;19.08;67.80;98790.73;1762486;80;25987;-87
2021/07/22 06:01:53;;;;;;;;;;;;;;;19.14;67.75;98784.81;1772332;80;20870;-87
2021/07/22 06:04:26;;;;;;;;;;;;;;;19.16;67.70;98785.48;1771994;80;20229;-87
2021/07/22 06:06:52;;;;;;;;;;;;;;;19.23;67.70;98787.87;1770223;79;25911;-87
2021/07/22 06:09:21;;;;;;;;;;;;;;;19.29;67.71;98785.93;1769209;80;22168;-87
2021/07/22 06:11:49;;;;;;;;;;;;;;;19.33;67.69;98787.77;1768824;79;26239;-88
2021/07/22 06:14:15;;;;;;;;;;;;;;;19.38;67.70;98786.33;1767396;80;24496;-87
2021/07/22 06:16:41;;;;;;;;;;;;;;;19.44;67.67;98783.06;1768079;80;20758;-87
2021/07/22 06:19:09;;;;;;;;;;;;;;;19.51;67.64;98786.80;1766513;80;25103;-87
2021/07/22 06:21:35;;;;;;;;;;;;;;;19.59;67.59;98786.01;1769144;80;21983;-87
2021/07/22 06:24:06;;;;;;;;;;;;;;;19.61;67.46;98784.88;1770665;79;21207;-87
2021/07/22 06:26:34;;;;;;;;;;;;;;;19.62;67.37;98786.55;1771483;80;24503;-87
2021/07/22 06:29:00;;;;;;;;;;;;;;;19.63;67.26;98788.23;1766979;79;20308;-87
2021/07/22 06:31:29;;;;;;;;;;;;;;;19.72;67.17;98787.77;1767150;80;25003;-87
2021/07/22 06:33:58;;;;;;;;;;;;;;;19.79;67.12;98783.52;1769494;80;21999;-87
2021/07/22 06:36:24;;;;;;;;;;;;;;;19.77;67.01;98774.86;1730082;82;26052;-87
2021/07/22 06:38:50;;;;;;;;;;;;;;;19.83;66.93;98772.06;1722809;82;24491;-87
2021/07/22 06:41:21;;;;;;;;;;;;;;;19.98;66.88;98782.44;1770256;80;20249;-87
2021/07/22 06:43:54;;;;;;;;;;;;;;;20.08;66.81;98779.17;1740431;80;25764;-87
2021/07/22 06:46:19;;;;;;;;;;;;;;;20.08;66.71;98779.17;1769309;80;22001;-87
2021/07/22 06:48:47;;;;;;;;;;;;;;;20.15;66.64;98780.20;1772441;80;21020;-87
2021/07/22 06:51:19;;;;;;;;;;;;;;;20.33;66.61;98782.81;1771227;80;25388;-88
2021/07/22 06:53:45;;;;;;;;;;;;;;;20.48;66.57;98783.86;1770771;80;20560;-87
2021/07/22 06:56:11;;;;;;;;;;;;;;;20.54;66.46;98779.23;1769954;79;24489;-87
2021/07/22 06:58:38;;;;;;;;;;;;;;;20.62;66.34;98783.23;1770280;79;20397;-87
2021/07/22 07:01:04;;;;;;;;;;;;;;;20.71;66.27;98779.62;1763113;81;26055;-87
2021/07/22 07:03:35;;;;;;;;;;;;;;;20.76;66.12;98776.46;1765436;79;24489;-87
2021/07/22 07:06:07;;;;;;;;;;;;;;;20.79;65.99;98776.95;1766692;81;20292;-87
2021/07/22 07:08:36;;;;;;;;;;;;;;;20.88;65.86;98776.49;1741232;81;25760;-87
2021/07/22 07:11:04;;;;;;;;;;;;;;;20.94;65.77;98777.17;1767212;81;22032;-87
2021/07/22 07:13:30;;;;;;;;;;;;;;;20.91;65.69;98771.33;1741362;81;26139;-87
2021/07/22 07:15:56;;;;;;;;;;;;;;;20.94;65.60;98771.02;1736875;81;20289;-87
2021/07/22 07:18:22;;;;;;;;;;;;;;;21.00;65.52;98767.70;1681219;85;20468;-87
2021/07/22 07:20:48;;;;;;;;;;;;;;;20.95;65.43;98762.84;1724859;83;24944;-87
2021/07/22 07:23:14;;;;;;;;;;;;;;;20.89;65.30;98763.53;1692849;84;20828;-88
2021/07/22 07:25:40;;;;;;;;;;;;;;;21.00;65.33;98761.85;1712771;83;21657;-87
2021/07/22 07:28:06;;;;;;;;;;;;;;;21.04;65.27;98756.55;1696163;84;24530;-87
2021/07/22 07:30:33;;;;;;;;;;;;;;;21.09;65.20;98756.89;1726444;82;20294;-87
2021/07/22 07:33:01;;;;;;;;;;;;;;;21.02;65.03;98761.70;1729051;83;25097;-87
2021/07/22 07:35:27;;;;;;;;;;;;;;;20.94;64.85;98763.87;1725686;82;21927;-87
2021/07/22 07:37:53;;;;;;;;;;;;;;;20.99;64.76;98758.87;1728894;83;21151;-87
2021/07/22 07:40:19;;;;;;;;;;;;;;;21.06;64.70;98755.03;1723079;82;24508;-87
2021/07/22 07:42:45;;;;;;;;;;;;;;;21.08;64.61;98751.22;1725304;83;20208;-88
2021/07/22 07:45:11;;;;;;;;;;;;;;;21.12;64.57;98755.70;1721494;83;20678;-87
2021/07/22 07:47:37;;;;;;;;;;;;;;;21.17;64.49;98750.75;1725464;82;20833;-87
2021/07/22 07:50:03;;;;;;;;;;;;;;;21.23;64.43;98755.41;1707019;83;26099;-87
2021/07/22 07:52:31;;;;;;;;;;;;;;;21.37;64.40;98764.08;1715971;83;24419;-88
2021/07/22 07:54:58;;;;;;;;;;;;;;;21.49;64.39;98760.05;1705934;83;20590;-88
2021/07/22 07:57:24;;;;;;;;;;;;;;;21.58;64.25;98755.06;1725846;82;24966;-87
2021/07/22 07:59:51;;;;;;;;;;;;;;;21.56;64.02;98762.38;1731029;82;20228;-87
2021/07/22 08:02:17;;;;;;;;;;;;;;;21.62;63.86;98755.55;1727708;82;26019;-87
2021/07/22 08:04:43;;;;;;;;;;;;;;;21.72;63.73;98753.53;1732483;82;20240;-87
2021/07/22 08:07:09;;;;;;;;;;;;;;;21.80;63.57;98756.69;1727914;82;20252;-87
2021/07/22 08:09:35;;;;;;;;;;;;;;;21.76;63.38;98750.87;1730823;82;20288;-87
2021/07/22 08:12:01;;;;;;;;;;;;;;;21.74;63.25;98752.87;1699293;82;20845;-88
2021/07/22 08:14:27;;;;;;;;;;;;;;;21.87;63.20;98745.69;1728766;82;21039;-88
2021/07/22 08:16:53;;;;;;;;;;;;;;;21.93;63.08;98751.13;1730533;82;24351;-88
2021/07/22 08:19:19;;;;;;;;;;;;;;;21.83;62.83;98745.17;1729522;82;20316;-88
2021/07/22 08:21:45;;;;;;;;;;;;;;;21.84;62.60;98751.34;1729260;82;20283;-88
2021/07/22 08:24:11;;;;;;;;;;;;;;;21.85;62.38;98751.67;1732141;82;20404;-88
2021/07/22 08:26:37;;;;;;;;;;;;;;;21.90;62.24;98749.33;1732718;82;21060;-88
2021/07/22 08:29:03;;;;;;;;;;;;;;;21.90;62.04;98747.50;1732559;82;24612;-88
2021/07/22 08:31:29;;;;;;;;;;;;;;;21.93;61.85;98744.47;1704531;84;20855;-88
2021/07/22 08:33:56;;;;;;;;;;;;;;;22.01;61.72;98747.16;1720120;83;25125;-88
2021/07/22 08:36:22;;;;;;;;;;;;;;;22.15;61.69;98741.59;1720656;82;21911;-88
2021/07/22 08:38:48;;;;;;;;;;;;;;;22.36;61.60;98739.69;1715179;83;25535;-88
2021/07/22 08:41:15;;;;;;;;;;;;;;;22.44;61.41;98737.80;1715779;83;24491;-88
2021/07/22 08:43:41;;;;;;;;;;;;;;;22.56;61.22;98730.23;1716542;81;20455;-88
2021/07/22 08:46:07;;;;;;;;;;;;;;;22.60;60.93;98726.20;1721741;83;25040;-88
2021/07/22 08:48:35;;;;;;;;;;;;;;;22.63;60.58;98724.54;1720941;83;21948;-88
2021/07/22 08:51:04;;;;;;;;;;;;;;;22.70;60.26;98725.47;1699118;83;22077;-88
2021/07/22 08:53:30;;;;;;;;;;;;;;;22.84;60.04;98717.25;1720995;83;24505;-88
2021/07/22 08:55:58;;;;;;;;;;;;;;;23.01;59.81;98711.28;1722589;83;20245;-89
2021/07/22 08:58:26;;;;;;;;;;;;;;;23.09;59.47;98717.88;1721769;83;24896;-88
2021/07/22 09:00:54;;;;;;;;;;;;;;;23.21;59.10;98717.28;1715949;83;21414;-88
2021/07/22 09:03:20;;;;;;;;;;;;;;;23.36;58.85;98717.30;1720789;83;26222;-88
2021/07/22 09:05:46;;;;;;;;;;;;;;;23.27;58.26;98710.39;1723170;83;20271;-89
2021/07/22 09:08:13;;;;;;;;;;;;;;;23.32;57.97;98709.34;1716435;83;20308;-88
2021/07/22 09:10:40;;;;;;;;;;;;;;;23.35;57.56;98712.47;1721479;83;24965;-88
2021/07/22 09:13:13;;;;;;;;;;;;;;;23.28;56.97;98711.55;1718394;83;22342;-89
2021/07/22 09:15:36;;;;;;;;;;;;;;;23.22;56.48;98712.27;1715685;83;26187;-88
2021/07/22 09:18:21;;;;;;;;;;;;;;;23.18;56.09;98711.48;1704371;83;24594;-88
2021/07/22 09:20:49;;;;;;;;;;;;;;;23.17;55.71;98708.48;1720432;83;20251;-87
2021/07/22 09:23:20;;;;;;;;;;;;;;;23.29;55.49;98703.04;1720921;83;24968;-88
2021/07/22 09:25:48;;;;;;;;;;;;;;;23.44;55.28;98708.39;1724189;81;22783;-88
2021/07/22 09:28:15;;;;;;;;;;;;;;;23.54;54.91;98700.47;1720485;81;26137;-88
2021/07/22 09:30:58;;;;;;;;;;;;;;;23.65;54.43;98702.69;1720181;83;24515;-88
2021/07/22 09:33:44;;;;;;;;;;;;;;;23.74;53.98;98702.08;1719538;83;20546;-88
2021/07/22 09:36:30;;;;;;;;;;;;;;;23.90;53.64;98701.06;1720258;83;25039;-88
2021/07/22 09:39:15;;;;;;;;;;;;;;;23.98;53.22;98699.64;1721819;83;21969;-88
2021/07/22 09:41:41;;;;;;;;;;;;;;;24.00;52.82;98701.10;1720554;83;26187;-88
2021/07/22 09:44:08;;;;;;;;;;;;;;;24.09;52.55;98697.84;1721477;83;20830;-88
2021/07/22 09:46:41;;;;;;;;;;;;;;;24.24;52.35;98690.64;1716912;81;20251;-88
2021/07/22 09:49:10;;;;;;;;;;;;;;;24.41;52.15;98693.42;1720539;81;25053;-87
2021/07/22 09:51:37;;;;;;;;;;;;;;;24.56;51.91;98691.52;1720770;81;22065;-87
2021/07/22 09:54:08;;;;;;;;;;;;;;;24.84;51.82;98690.27;1719878;83;26001;-87
2021/07/22 09:56:36;;;;;;;;;;;;;;;25.03;51.56;98692.02;1717549;81;24604;-87
2021/07/22 09:59:04;;;;;;;;;;;;;;;24.96;51.13;98683.92;1727814;82;20563;-87
2021/07/22 10:01:36;;;;;;;;;;;;;;;24.98;50.88;98687.25;1728761;81;25641;-87
2021/07/22 10:04:04;;;;;;;;;;;;;;;24.89;50.52;98688.38;1723985;82;22085;-87
2021/07/22 10:06:30;;;;;;;;;;;;;;;24.85;50.35;98689.76;1728210;82;26146;-87
2021/07/22 10:08:56;;;;;;;;;;;;;;;24.80;50.15;98693.52;1725523;82;20259;-87
2021/07/22 10:11:22;;;;;;;;;;;;;;;24.66;49.87;98688.53;1732917;82;20904;-87
2021/07/22 10:13:53;;;;;;;;;;;;;;;24.69;49.71;98690.02;1732362;82;24955;-87
2021/07/22 10:16:22;;;;;;;;;;;;;;;24.80;49.62;98685.49;1732179;82;22274;-87
2021/07/22 10:18:50;;;;;;;;;;;;;;;25.00;49.61;98686.02;1729435;81;26120;-87
2021/07/22 10:21:16;;;;;;;;;;;;;;;25.09;49.37;98686.73;1732257;81;24600;-87
2021/07/22 10:23:42;;;;;;;;;;;;;;;25.06;48.90;98689.77;1730601;82;20546;-87
2021/07/22 10:26:11;;;;;;;;;;;;;;;25.00;48.49;98683.34;1729670;82;25021;-87
2021/07/22 10:28:39;;;;;;;;;;;;;;;24.94;48.11;98680.59;1725768;82;20545;-87
2021/07/22 10:31:05;;;;;;;;;;;;;;;25.00;47.95;98673.97;1727137;82;26099;-87
2021/07/22 10:33:34;;;;;;;;;;;;;;;25.22;47.91;98683.31;1729093;82;24448;-87
2021/07/22 10:36:03;;;;;;;;;;;;;;;25.36;47.77;98675.70;1727560;82;20279;-87
2021/07/22 10:38:43;;;;;;;;;;;;;;;25.43;47.55;98677.39;1732859;82;25053;-87
2021/07/22 10:41:09;;;;;;;;;;;;;;;25.53;47.53;98683.73;1730486;82;21910;-87
2021/07/22 10:43:41;;;;;;;;;;;;;;;25.60;47.38;98681.13;1729736;82;26040;-87
2021/07/22 10:46:11;;;;;;;;;;;;;;;25.63;47.19;98680.76;1729815;82;24705;-87
2021/07/22 10:48:40;;;;;;;;;;;;;;;25.65;46.96;98677.34;1730543;82;20264;-87
2021/07/22 10:51:10;;;;;;;;;;;;;;;25.66;46.78;98677.67;1719716;82;25041;-87
2021/07/22 10:53:44;;;;;;;;;;;;;;;25.77;46.75;98682.48;1717922;82;23391;-87
2021/07/22 10:56:11;;;;;;;;;;;;;;;25.73;46.42;98677.20;1729954;82;26095;-87
2021/07/22 10:58:39;;;;;;;;;;;;;;;25.70;46.25;98677.58;1711376;82;24410;-87
2021/07/22 11:01:06;;;;;;;;;;;;;;;25.83;46.28;98677.67;1709544;83;20197;-87
2021/07/22 11:03:38;;;;;;;;;;;;;;;25.98;46.22;98672.16;1714242;83;24995;-88
2021/07/22 11:06:11;;;;;;;;;;;;;;;25.93;45.95;98678.64;1707363;83;22070;-87
2021/07/22 11:08:37;;;;;;;;;;;;;;;25.81;45.78;98673.84;1706897;83;26006;-87
2021/07/22 11:11:06;;;;;;;;;;;;;;;25.85;45.65;98670.78;1705223;83;24443;-87
2021/07/22 11:13:37;;;;;;;;;;;;;;;25.97;45.66;98669.99;1713614;83;20273;-87
2021/07/22 11:16:06;;;;;;;;;;;;;;;26.20;45.73;98671.85;1712613;83;25203;-87
2021/07/22 11:18:43;;;;;;;;;;;;;;;26.12;45.39;98668.53;1701818;83;22106;-87
2021/07/22 11:21:14;;;;;;;;;;;;;;;26.09;45.27;98664.38;1710904;83;26036;-86
2021/07/22 11:23:40;;;;;;;;;;;;;;;26.30;45.44;98659.94;1711435;83;24503;-87
2021/07/22 11:26:06;;;;;;;;;;;;;;;26.40;45.28;98660.41;1707933;83;20287;-87
2021/07/22 11:28:32;;;;;;;;;;;;;;;26.32;45.02;98650.67;1712382;82;24946;-87
2021/07/22 11:31:04;;;;;;;;;;;;;;;26.37;44.96;98656.77;1715118;82;21795;-87
2021/07/22 11:33:31;;;;;;;;;;;;;;;26.46;44.90;98661.73;1713031;83;26167;-87
2021/07/22 11:35:58;;;;;;;;;;;;;;;26.43;44.68;98659.98;1711031;82;24507;-87
2021/07/22 11:38:25;;;;;;;;;;;;;;;26.32;44.43;98661.91;1699421;83;20154;-87
2021/07/22 11:40:52;;;;;;;;;;;;;;;26.29;44.28;98654.28;1709986;83;25093;-87
2021/07/22 11:43:36;;;;;;;;;;;;;;;26.14;43.91;98655.21;1708859;83;22056;-87
2021/07/22 11:46:04;;;;;;;;;;;;;;;26.14;43.75;98655.21;1713029;83;26041;-88
2021/07/22 11:48:30;;;;;;;;;;;;;;;26.14;43.75;98654.38;1709179;83;25094;-88
2021/07/22 11:51:03;;;;;;;;;;;;;;;26.12;43.61;98653.27;1702306;83;20311;-89
2021/07/22 12:00:40;;;;;;;;;;;;;;;26.22;43.50;98655.08;1728338;82;22811;-88
2021/07/22 12:03:09;;;;;;;;;;;;;;;25.96;43.11;98663.00;1698969;82;24319;-88
2021/07/22 12:05:38;;;;;;;;;;;;;;;25.78;43.00;98655.48;1724253;82;20257;-88
2021/07/22 12:08:15;;;;;;;;;;;;;;;25.71;42.94;98655.12;1772865;80;25647;-88
2021/07/22 12:10:42;;;;;;;;;;;;;;;25.68;42.89;98652.34;1771697;80;22211;-88
2021/07/22 12:13:11;;;;;;;;;;;;;;;25.68;42.81;98650.16;1772297;80;26118;-88
2021/07/22 12:15:38;;;;;;;;;;;;;;;25.66;42.78;98650.35;1775247;80;24491;-88
2021/07/22 12:18:04;;;;;;;;;;;;;;;25.53;42.82;98648.09;1773493;79;20476;-88
2021/07/22 12:20:31;;;;;;;;;;;;;;;25.37;42.92;98642.50;1773414;80;25024;-88
2021/07/22 12:22:57;;;;;;;;;;;;;;;25.22;43.01;98645.80;1773231;80;22032;-88
2021/07/22 12:25:26;;;;;;;;;;;;;;;25.11;43.14;98646.33;1768772;80;21089;-88
2021/07/22 12:27:52;;;;;;;;;;;;;;;24.95;43.19;98650.13;1769881;80;25612;-88
2021/07/22 12:30:23;;;;;;;;;;;;;;;24.88;43.31;98646.05;1771778;80;20557;-88
2021/07/22 12:32:52;;;;;;;;;;;;;;;24.82;43.31;98641.97;1772387;80;25147;-87
2021/07/22 12:35:38;;;;;;;;;;;;;;;24.76;43.30;98642.73;1740537;80;21969;-86
2021/07/22 12:38:08;;;;;;;;;;;;;;;24.65;43.34;98632.54;1771785;79;26136;-88
2021/07/22 12:40:39;;;;;;;;;;;;;;;24.66;43.50;98639.55;1763138;80;25296;-88
2021/07/22 12:43:06;;;;;;;;;;;;;;;24.55;43.46;98632.83;1772440;80;20217;-88
2021/07/22 12:45:32;;;;;;;;;;;;;;;24.45;43.50;98635.83;1769414;80;25024;-88
2021/07/22 12:47:58;;;;;;;;;;;;;;;24.34;43.56;98634.99;1767266;80;22785;-88
2021/07/22 12:50:29;;;;;;;;;;;;;;;24.29;43.67;98633.90;1761071;80;20942;-88
2021/07/22 12:52:59;;;;;;;;;;;;;;;24.34;43.82;98632.82;1762249;80;24545;-88
2021/07/22 12:55:31;;;;;;;;;;;;;;;24.34;43.78;98631.48;1770502;80;20238;-88
2021/07/22 12:57:57;;;;;;;;;;;;;;;24.36;43.84;98632.97;1769466;80;25751;-88